x

South Brooks (46132) Wave Buoy

9:00 - Fri 29th Aug 2014 All times are PDT. -7 hours from GMT.

  • Sig Wave height 3.9ft
  • Peak Period 9s
  • Wind
    18mph, 20mph gusts
  • Sea Temp 59°f
  • Luft Temp 58°f
  • Sea Pressure 1012.9mb
  • South Brooks
  • South Brooks

More Historic Weather Station data

Upgrade to MSW Pro to gain access to the past 30 days of data for over 8000 Wavebouys and Weather Stations around the globe.

Join Pro

Comparision Forecast

View Surf forecast
   
Fr 08/29 9:00 4ft 9s 18 20 mph 1012.9mb 59f 58f
8:00 3.5ft 8s 16 20 mph 1013.1mb 59f 59f
7:00 3.5ft 15s 13 16 mph 1013.1mb 59f 60f
6:00 3.5ft 10s 11 13 mph 1013.1mb 59f 60f
5:00 3.5ft 8s 11 13 mph 1013.4mb 59f 59f
4:00 3.5ft 15s 11 13 mph 1013.8mb 59f 60f
3:00 3.5ft 10s 9 11 mph 1014.3mb 59f 60f
2:00 3.5ft 10s 4 7 mph 1015mb 59f 59f
1:00 4ft 10s 4
mph
1015.5mb 59f 59f
12:00 4ft 15s 4
mph
1016.1mb 60f 60f
Do 08/28 11:00 4ft 10s 4 7 mph 1016.6mb 59f 60f
10:00 4ft 10s 9
mph
1017mb 59f 60f
9:00 4.5ft 10s 7 9 mph 1017.2mb 59f 60f
8:00 4.5ft 11s 7 9 mph 1017.7mb 60f 60f
7:00 4ft 9s 7
mph
1018mb 60f 60f
6:00 4.5ft 9s 9 11 mph 1018.1mb 60f 60f
5:00 4ft 10s 9 11 mph 1018.4mb 60f 60f
4:00 4.5ft 10s 11
mph
1018.8mb 59f 60f
3:00 4.5ft 11s 11 13 mph 1018.9mb 59f 60f
2:00 4ft 9s 13 16 mph 1019.1mb 59f 59f
1:00 4ft 11s 11 13 mph 1019.2mb 59f 59f
12:00 4ft 16s 11 13 mph 1019.2mb 59f 58f
11:00 4ft 10s 11 13 mph 1019.4mb 59f 58f
10:00 4.5ft 10s 11 13 mph 1019.3mb 59f 58f
9:00 4.5ft 10s 13 16 mph 1019.1mb 59f 58f
8:00 4.5ft 10s 16 18 mph 1018.9mb 59f 58f
7:00 4.5ft 10s 16 20 mph 1018.5mb 59f 58f
6:00 4.5ft 10s 18 22 mph 1018.5mb 59f 58f
5:00 4.5ft 10s 18 20 mph 1018.3mb 59f 58f
4:00 4.5ft 10s 18 22 mph 1018.4mb 59f 58f
3:00 4.5ft 10s 18 22 mph 1018.1mb 59f 58f
2:00 4.5ft 10s 20 27 mph 1017.8mb 59f 58f
1:00 4ft 11s 20 25 mph 1017.7mb 58f 59f
12:00 4ft 10s 18 20 mph 1017.7mb 59f 59f
Mi 08/27 11:00 3.5ft 10s 16 18 mph 1017.9mb 59f 59f
10:00 3.5ft 17s 13 16 mph 1018mb 59f 59f
9:00 3.5ft 17s 11 13 mph 1018.1mb 59f 59f
8:00 3ft 17s 11
mph
1018mb 60f 59f
7:00 3ft 17s 9 11 mph 1018.2mb 61f 60f
6:00 3ft 17s 9
mph
1018.4mb 60f 60f
5:00 3ft 15s 4
mph
1018.2mb 62f 62f
4:00 3ft 17s 4
mph
1018.4mb 62f 62f
3:00 3ft 14s 2 4 mph 1018.7mb 62f 62f
2:00 3.5ft 17s 2
mph
1018.8mb 60f 62f
1:00 3.5ft 8s 2 4 mph 1019mb 60f 61f
12:00 3.5ft 8s 4
mph
1019mb 60f 60f
11:00 3.5ft 17s 4 7 mph 1019.1mb 59f 59f
10:00 3.5ft 8s 9
mph
1018.9mb 58f 59f
9:00 4ft 7s 9
mph
1018.6mb 58f 59f
8:00 4ft 8s 11 13 mph 1018.7mb 58f 58f
7:00 3.5ft 8s 13 16 mph 1018.4mb 58f 58f
6:00 3.5ft 7s 13 16 mph 1018.1mb 58f 58f
5:00 4ft 8s 16 18 mph 1018mb 58f 58f
4:00 4ft 8s 16 18 mph 1017.9mb 58f 59f
3:00 4ft 8s 18 20 mph 1017.6mb 58f 59f
2:00 4.5ft 8s 18 20 mph 1017.6mb 58f 59f
1:00 4.5ft 8s 18 20 mph 1017.5mb 58f 59f
12:00 4.5ft 8s 18 20 mph 1017.8mb 58f 59f
Di 08/26 11:00 5ft 9s 20 22 mph 1017.7mb 58f 58f
10:00 4.5ft 8s 20 22 mph 1017.9mb 58f 58f
9:00 5ft 9s 20 25 mph 1017.9mb 58f 57f
8:00 5ft 8s 22 25 mph 1017.6mb 58f 58f
7:00 5ft 8s 16 20 mph 1017.7mb 58f 60f
6:00 4.5ft 9s 16 18 mph 1017.8mb 58f 60f
5:00 4.5ft 9s 18 20 mph 1017.9mb 59f 60f
4:00 4.5ft 8s 16 20 mph 1018.3mb 58f 60f
3:00 4.5ft 8s 16 20 mph 1018.7mb 59f 60f
2:00 4.5ft 8s 13 16 mph 1018.9mb 59f 60f
1:00 4.5ft 8s 13 18 mph 1019mb 59f 59f
12:00 4.5ft 8s 13 16 mph 1018.7mb 58f 59f
11:00 4ft 8s 13 16 mph 1018.7mb 58f 59f
10:00 4.5ft 9s 9 11 mph 1018.8mb 58f 59f
9:00 5ft 8s 11 13 mph 1018.4mb 58f 59f
8:00 4.5ft 8s 11 13 mph 1018.3mb 58f 59f
7:00 4.5ft 8s 13
mph
1018mb 58f 59f
6:00 4.5ft 8s 11
mph
1017.5mb 58f 59f
5:00 5ft 8s 9 11 mph 1017.3mb 58f 59f
4:00 5ft 8s 9 11 mph 1017.4mb 58f 59f
3:00 5ft 8s 7 9 mph 1017.5mb 58f 59f
2:00 5ft 7s 7 9 mph 1017.4mb 58f 58f
1:00 4.5ft 8s 9 11 mph 1017.8mb 58f 59f
12:00 5ft 8s 9 11 mph 1018mb 58f 59f
Mo 08/25 11:00 4.5ft 7s 13 16 mph 1017.7mb 58f 60f
10:00 4.5ft 7s 13 18 mph 1017.8mb 58f 59f
9:00 4.5ft 7s 16 18 mph 1017.7mb 58f 59f
8:00 3.5ft 6s 13 16 mph 1017.5mb 58f 59f
7:00 3.5ft 16s 16 18 mph 1017.6mb 58f 60f
6:00 3.5ft 7s 18 20 mph 1017.7mb 58f 59f